sensor_id;sensor_type;location;lat;lon;timestamp;P1;durP1;ratioP1;P2;durP2;ratioP2
69750;SDS011;57335;52.288;6.056;2023-07-16T00:00:19;12.75;;;4.60;;
69750;SDS011;57335;52.288;6.056;2023-07-16T00:02:46;10.40;;;4.25;;
69750;SDS011;57335;52.288;6.056;2023-07-16T00:05:13;11.95;;;4.35;;
69750;SDS011;57335;52.288;6.056;2023-07-16T00:07:40;12.70;;;4.63;;
69750;SDS011;57335;52.288;6.056;2023-07-16T00:10:07;11.55;;;4.43;;
69750;SDS011;57335;52.288;6.056;2023-07-16T00:12:34;11.35;;;4.47;;
69750;SDS011;57335;52.288;6.056;2023-07-16T00:15:00;13.35;;;4.65;;
69750;SDS011;57335;52.288;6.056;2023-07-16T00:17:27;13.75;;;4.72;;
69750;SDS011;57335;52.288;6.056;2023-07-16T00:19:53;13.82;;;4.43;;
69750;SDS011;57335;52.288;6.056;2023-07-16T00:22:19;11.25;;;3.97;;
69750;SDS011;57335;52.288;6.056;2023-07-16T00:24:46;12.93;;;4.60;;
69750;SDS011;57335;52.288;6.056;2023-07-16T00:27:12;11.85;;;3.85;;
69750;SDS011;57335;52.288;6.056;2023-07-16T00:29:39;14.75;;;4.07;;
69750;SDS011;57335;52.288;6.056;2023-07-16T00:32:05;11.35;;;3.83;;
69750;SDS011;57335;52.288;6.056;2023-07-16T00:34:32;9.18;;;2.90;;
69750;SDS011;57335;52.288;6.056;2023-07-16T00:36:58;8.68;;;2.70;;
69750;SDS011;57335;52.288;6.056;2023-07-16T00:39:24;9.68;;;2.45;;
69750;SDS011;57335;52.288;6.056;2023-07-16T00:41:51;7.18;;;2.20;;
69750;SDS011;57335;52.288;6.056;2023-07-16T00:44:17;11.18;;;2.40;;
69750;SDS011;57335;52.288;6.056;2023-07-16T00:46:44;6.53;;;2.17;;
69750;SDS011;57335;52.288;6.056;2023-07-16T00:49:10;9.43;;;2.10;;
69750;SDS011;57335;52.288;6.056;2023-07-16T00:51:37;8.10;;;2.05;;
69750;SDS011;57335;52.288;6.056;2023-07-16T00:54:03;6.82;;;1.90;;
69750;SDS011;57335;52.288;6.056;2023-07-16T00:56:31;8.20;;;2.30;;
69750;SDS011;57335;52.288;6.056;2023-07-16T00:58:58;6.80;;;2.00;;
69750;SDS011;57335;52.288;6.056;2023-07-16T01:01:24;7.57;;;2.20;;
69750;SDS011;57335;52.288;6.056;2023-07-16T01:03:51;7.45;;;1.80;;
69750;SDS011;57335;52.288;6.056;2023-07-16T01:06:22;8.10;;;2.05;;
69750;SDS011;57335;52.288;6.056;2023-07-16T01:08:52;7.25;;;1.77;;
69750;SDS011;57335;52.288;6.056;2023-07-16T01:11:24;7.82;;;2.17;;
69750;SDS011;57335;52.288;6.056;2023-07-16T01:13:50;9.45;;;2.03;;
69750;SDS011;57335;52.288;6.056;2023-07-16T01:16:22;7.38;;;2.20;;
69750;SDS011;57335;52.288;6.056;2023-07-16T01:18:50;5.30;;;1.77;;
69750;SDS011;57335;52.288;6.056;2023-07-16T01:21:21;8.15;;;1.90;;
69750;SDS011;57335;52.288;6.056;2023-07-16T01:26:33;11.38;;;4.50;;
69750;SDS011;57335;52.288;6.056;2023-07-16T01:29:27;15.10;;;5.13;;
69750;SDS011;57335;52.288;6.056;2023-07-16T01:32:07;12.82;;;4.40;;
69750;SDS011;57335;52.288;6.056;2023-07-16T01:34:37;9.98;;;3.60;;
69750;SDS011;57335;52.288;6.056;2023-07-16T01:37:05;11.35;;;3.30;;
69750;SDS011;57335;52.288;6.056;2023-07-16T01:39:32;11.30;;;3.33;;
69750;SDS011;57335;52.288;6.056;2023-07-16T01:41:58;10.45;;;3.70;;
69750;SDS011;57335;52.288;6.056;2023-07-16T01:44:25;10.85;;;3.60;;
69750;SDS011;57335;52.288;6.056;2023-07-16T01:47:02;10.88;;;3.50;;
69750;SDS011;57335;52.288;6.056;2023-07-16T01:49:32;10.40;;;3.97;;
69750;SDS011;57335;52.288;6.056;2023-07-16T01:51:59;11.90;;;3.75;;
69750;SDS011;57335;52.288;6.056;2023-07-16T01:54:27;14.95;;;3.63;;
69750;SDS011;57335;52.288;6.056;2023-07-16T01:56:53;9.55;;;3.13;;
69750;SDS011;57335;52.288;6.056;2023-07-16T01:59:19;10.75;;;3.22;;
69750;SDS011;57335;52.288;6.056;2023-07-16T02:01:46;11.25;;;3.28;;
69750;SDS011;57335;52.288;6.056;2023-07-16T02:04:12;9.95;;;3.30;;
69750;SDS011;57335;52.288;6.056;2023-07-16T02:06:39;10.25;;;3.42;;
69750;SDS011;57335;52.288;6.056;2023-07-16T02:09:05;9.60;;;2.95;;
69750;SDS011;57335;52.288;6.056;2023-07-16T02:11:32;11.90;;;3.15;;
69750;SDS011;57335;52.288;6.056;2023-07-16T02:13:58;10.75;;;3.05;;
69750;SDS011;57335;52.288;6.056;2023-07-16T02:16:24;9.27;;;3.20;;
69750;SDS011;57335;52.288;6.056;2023-07-16T02:18:51;9.43;;;2.92;;
69750;SDS011;57335;52.288;6.056;2023-07-16T02:21:17;10.23;;;3.38;;
69750;SDS011;57335;52.288;6.056;2023-07-16T02:23:44;11.35;;;2.95;;
69750;SDS011;57335;52.288;6.056;2023-07-16T02:26:10;9.02;;;2.75;;
69750;SDS011;57335;52.288;6.056;2023-07-16T02:28:36;12.30;;;3.00;;
69750;SDS011;57335;52.288;6.056;2023-07-16T02:31:03;9.77;;;2.65;;
69750;SDS011;57335;52.288;6.056;2023-07-16T02:33:29;8.70;;;2.63;;
69750;SDS011;57335;52.288;6.056;2023-07-16T02:35:56;8.45;;;2.40;;
69750;SDS011;57335;52.288;6.056;2023-07-16T02:38:22;12.20;;;2.72;;
69750;SDS011;57335;52.288;6.056;2023-07-16T02:40:49;11.27;;;2.58;;
69750;SDS011;57335;52.288;6.056;2023-07-16T02:43:15;10.18;;;2.50;;
69750;SDS011;57335;52.288;6.056;2023-07-16T02:45:41;8.90;;;2.63;;
69750;SDS011;57335;52.288;6.056;2023-07-16T02:48:08;11.43;;;2.67;;
69750;SDS011;57335;52.288;6.056;2023-07-16T02:50:34;11.43;;;2.70;;
69750;SDS011;57335;52.288;6.056;2023-07-16T02:53:02;9.40;;;2.05;;
69750;SDS011;57335;52.288;6.056;2023-07-16T02:55:29;10.18;;;2.33;;
69750;SDS011;57335;52.288;6.056;2023-07-16T02:57:56;12.32;;;2.70;;
69750;SDS011;57335;52.288;6.056;2023-07-16T03:00:22;10.07;;;2.20;;
69750;SDS011;57335;52.288;6.056;2023-07-16T03:02:49;9.20;;;2.53;;
69750;SDS011;57335;52.288;6.056;2023-07-16T03:05:16;9.65;;;2.50;;
69750;SDS011;57335;52.288;6.056;2023-07-16T03:07:43;8.13;;;2.30;;
69750;SDS011;57335;52.288;6.056;2023-07-16T03:10:09;10.52;;;2.90;;
69750;SDS011;57335;52.288;6.056;2023-07-16T03:12:36;9.98;;;2.50;;
69750;SDS011;57335;52.288;6.056;2023-07-16T03:15:02;9.65;;;2.55;;
69750;SDS011;57335;52.288;6.056;2023-07-16T03:17:29;8.23;;;2.40;;
69750;SDS011;57335;52.288;6.056;2023-07-16T03:19:55;9.07;;;2.28;;
69750;SDS011;57335;52.288;6.056;2023-07-16T03:22:22;9.82;;;2.50;;
69750;SDS011;57335;52.288;6.056;2023-07-16T03:24:48;8.75;;;2.30;;
69750;SDS011;57335;52.288;6.056;2023-07-16T03:27:15;10.25;;;2.50;;
69750;SDS011;57335;52.288;6.056;2023-07-16T03:29:44;9.65;;;2.63;;
69750;SDS011;57335;52.288;6.056;2023-07-16T03:32:11;11.15;;;2.70;;
69750;SDS011;57335;52.288;6.056;2023-07-16T03:34:37;9.07;;;2.30;;
69750;SDS011;57335;52.288;6.056;2023-07-16T03:37:04;7.05;;;2.10;;
69750;SDS011;57335;52.288;6.056;2023-07-16T03:39:30;8.20;;;2.30;;
69750;SDS011;57335;52.288;6.056;2023-07-16T03:41:57;11.60;;;2.40;;
69750;SDS011;57335;52.288;6.056;2023-07-16T03:44:23;10.98;;;2.30;;
69750;SDS011;57335;52.288;6.056;2023-07-16T03:46:50;11.15;;;2.60;;
69750;SDS011;57335;52.288;6.056;2023-07-16T03:49:16;8.25;;;2.40;;
69750;SDS011;57335;52.288;6.056;2023-07-16T03:51:43;11.05;;;2.67;;
69750;SDS011;57335;52.288;6.056;2023-07-16T03:54:10;7.18;;;2.33;;
69750;SDS011;57335;52.288;6.056;2023-07-16T03:56:36;9.30;;;2.30;;
69750;SDS011;57335;52.288;6.056;2023-07-16T03:59:03;10.55;;;2.85;;
69750;SDS011;57335;52.288;6.056;2023-07-16T04:01:29;8.43;;;2.40;;
69750;SDS011;57335;52.288;6.056;2023-07-16T04:03:55;7.75;;;2.42;;
69750;SDS011;57335;52.288;6.056;2023-07-16T04:06:22;8.98;;;2.25;;
69750;SDS011;57335;52.288;6.056;2023-07-16T04:08:48;8.35;;;2.50;;
69750;SDS011;57335;52.288;6.056;2023-07-16T04:11:15;8.32;;;2.38;;
69750;SDS011;57335;52.288;6.056;2023-07-16T04:13:41;10.60;;;2.88;;
69750;SDS011;57335;52.288;6.056;2023-07-16T04:16:07;9.40;;;2.50;;
69750;SDS011;57335;52.288;6.056;2023-07-16T04:18:34;10.32;;;2.88;;
69750;SDS011;57335;52.288;6.056;2023-07-16T04:21:00;6.45;;;2.22;;
69750;SDS011;57335;52.288;6.056;2023-07-16T04:23:27;9.68;;;2.50;;
69750;SDS011;57335;52.288;6.056;2023-07-16T04:25:53;10.18;;;2.70;;
69750;SDS011;57335;52.288;6.056;2023-07-16T04:28:21;7.82;;;2.33;;
69750;SDS011;57335;52.288;6.056;2023-07-16T04:30:48;11.30;;;2.60;;
69750;SDS011;57335;52.288;6.056;2023-07-16T04:33:14;12.13;;;2.50;;
69750;SDS011;57335;52.288;6.056;2023-07-16T04:35:41;9.73;;;2.80;;
69750;SDS011;57335;52.288;6.056;2023-07-16T04:38:07;9.48;;;2.17;;
69750;SDS011;57335;52.288;6.056;2023-07-16T04:40:33;12.02;;;2.78;;
69750;SDS011;57335;52.288;6.056;2023-07-16T04:43:00;9.43;;;2.65;;
69750;SDS011;57335;52.288;6.056;2023-07-16T04:45:26;10.00;;;2.50;;
69750;SDS011;57335;52.288;6.056;2023-07-16T04:47:53;12.25;;;2.47;;
69750;SDS011;57335;52.288;6.056;2023-07-16T04:50:19;10.38;;;2.75;;
69750;SDS011;57335;52.288;6.056;2023-07-16T04:52:45;12.75;;;3.10;;
69750;SDS011;57335;52.288;6.056;2023-07-16T04:55:12;10.05;;;2.72;;
69750;SDS011;57335;52.288;6.056;2023-07-16T04:57:39;8.32;;;2.40;;
69750;SDS011;57335;52.288;6.056;2023-07-16T05:00:05;8.98;;;2.95;;
69750;SDS011;57335;52.288;6.056;2023-07-16T05:02:32;10.02;;;2.50;;
69750;SDS011;57335;52.288;6.056;2023-07-16T05:04:59;9.60;;;2.67;;
69750;SDS011;57335;52.288;6.056;2023-07-16T05:07:25;9.15;;;2.65;;
69750;SDS011;57335;52.288;6.056;2023-07-16T05:09:52;9.15;;;2.53;;
69750;SDS011;57335;52.288;6.056;2023-07-16T05:12:18;8.70;;;2.70;;
69750;SDS011;57335;52.288;6.056;2023-07-16T05:14:45;9.00;;;2.30;;
69750;SDS011;57335;52.288;6.056;2023-07-16T05:17:13;8.30;;;2.70;;
69750;SDS011;57335;52.288;6.056;2023-07-16T05:19:40;8.48;;;2.65;;
69750;SDS011;57335;52.288;6.056;2023-07-16T05:22:08;8.55;;;2.42;;
69750;SDS011;57335;52.288;6.056;2023-07-16T05:24:34;7.97;;;2.45;;
69750;SDS011;57335;52.288;6.056;2023-07-16T05:27:01;8.23;;;2.80;;
69750;SDS011;57335;52.288;6.056;2023-07-16T05:29:27;11.20;;;3.00;;
69750;SDS011;57335;52.288;6.056;2023-07-16T05:31:54;7.85;;;2.83;;
69750;SDS011;57335;52.288;6.056;2023-07-16T05:34:20;8.23;;;2.40;;
69750;SDS011;57335;52.288;6.056;2023-07-16T05:36:47;7.82;;;2.50;;
69750;SDS011;57335;52.288;6.056;2023-07-16T05:39:13;12.77;;;2.92;;
69750;SDS011;57335;52.288;6.056;2023-07-16T05:41:39;9.35;;;3.00;;
69750;SDS011;57335;52.288;6.056;2023-07-16T05:44:06;9.68;;;3.08;;
69750;SDS011;57335;52.288;6.056;2023-07-16T05:46:33;10.43;;;2.85;;
69750;SDS011;57335;52.288;6.056;2023-07-16T05:48:59;9.25;;;2.90;;
69750;SDS011;57335;52.288;6.056;2023-07-16T05:51:26;8.80;;;2.67;;
69750;SDS011;57335;52.288;6.056;2023-07-16T05:53:52;7.63;;;2.50;;
69750;SDS011;57335;52.288;6.056;2023-07-16T05:56:19;8.93;;;2.60;;
69750;SDS011;57335;52.288;6.056;2023-07-16T05:58:45;9.57;;;2.90;;
69750;SDS011;57335;52.288;6.056;2023-07-16T06:01:12;8.82;;;3.05;;
69750;SDS011;57335;52.288;6.056;2023-07-16T06:03:38;7.68;;;2.80;;
69750;SDS011;57335;52.288;6.056;2023-07-16T06:06:04;9.05;;;3.15;;
69750;SDS011;57335;52.288;6.056;2023-07-16T06:08:31;7.72;;;2.85;;
69750;SDS011;57335;52.288;6.056;2023-07-16T06:10:57;8.38;;;3.30;;
69750;SDS011;57335;52.288;6.056;2023-07-16T06:13:24;10.07;;;3.38;;
69750;SDS011;57335;52.288;6.056;2023-07-16T06:15:50;9.20;;;3.25;;
69750;SDS011;57335;52.288;6.056;2023-07-16T06:18:16;8.52;;;3.17;;
69750;SDS011;57335;52.288;6.056;2023-07-16T06:20:47;8.70;;;3.40;;
69750;SDS011;57335;52.288;6.056;2023-07-16T06:23:13;11.18;;;3.42;;
69750;SDS011;57335;52.288;6.056;2023-07-16T06:25:39;8.20;;;3.22;;
69750;SDS011;57335;52.288;6.056;2023-07-16T06:28:06;9.00;;;3.13;;
69750;SDS011;57335;52.288;6.056;2023-07-16T06:30:32;8.07;;;3.00;;
69750;SDS011;57335;52.288;6.056;2023-07-16T06:32:59;8.95;;;3.15;;
69750;SDS011;57335;52.288;6.056;2023-07-16T06:35:25;9.30;;;3.20;;
69750;SDS011;57335;52.288;6.056;2023-07-16T06:37:52;10.35;;;3.33;;
69750;SDS011;57335;52.288;6.056;2023-07-16T06:40:18;9.00;;;3.28;;
69750;SDS011;57335;52.288;6.056;2023-07-16T06:42:45;9.23;;;3.13;;
69750;SDS011;57335;52.288;6.056;2023-07-16T06:45:11;8.88;;;3.30;;
69750;SDS011;57335;52.288;6.056;2023-07-16T06:47:37;8.65;;;3.13;;
69750;SDS011;57335;52.288;6.056;2023-07-16T06:50:04;9.90;;;3.30;;
69750;SDS011;57335;52.288;6.056;2023-07-16T06:52:31;10.23;;;3.33;;
69750;SDS011;57335;52.288;6.056;2023-07-16T06:54:57;8.57;;;3.20;;
69750;SDS011;57335;52.288;6.056;2023-07-16T06:57:23;9.85;;;3.67;;
69750;SDS011;57335;52.288;6.056;2023-07-16T06:59:50;9.63;;;3.03;;
69750;SDS011;57335;52.288;6.056;2023-07-16T07:02:16;10.25;;;3.50;;
69750;SDS011;57335;52.288;6.056;2023-07-16T07:04:43;8.45;;;3.60;;
69750;SDS011;57335;52.288;6.056;2023-07-16T07:07:10;9.02;;;3.53;;
69750;SDS011;57335;52.288;6.056;2023-07-16T07:09:36;8.57;;;3.03;;
69750;SDS011;57335;52.288;6.056;2023-07-16T07:12:03;8.68;;;3.08;;
69750;SDS011;57335;52.288;6.056;2023-07-16T07:14:29;9.32;;;3.10;;
69750;SDS011;57335;52.288;6.056;2023-07-16T07:16:56;8.05;;;2.80;;
69750;SDS011;57335;52.288;6.056;2023-07-16T07:19:22;8.27;;;3.05;;
69750;SDS011;57335;52.288;6.056;2023-07-16T07:21:48;9.18;;;3.20;;
69750;SDS011;57335;52.288;6.056;2023-07-16T07:24:15;10.45;;;3.45;;
69750;SDS011;57335;52.288;6.056;2023-07-16T07:26:41;8.27;;;3.05;;
69750;SDS011;57335;52.288;6.056;2023-07-16T07:29:08;8.68;;;3.30;;
69750;SDS011;57335;52.288;6.056;2023-07-16T07:31:34;9.68;;;3.50;;
69750;SDS011;57335;52.288;6.056;2023-07-16T07:34:01;9.43;;;3.40;;
69750;SDS011;57335;52.288;6.056;2023-07-16T07:36:28;8.90;;;3.08;;
69750;SDS011;57335;52.288;6.056;2023-07-16T07:38:54;9.43;;;3.13;;
69750;SDS011;57335;52.288;6.056;2023-07-16T07:41:21;7.65;;;3.00;;
69750;SDS011;57335;52.288;6.056;2023-07-16T07:43:47;8.90;;;3.38;;
69750;SDS011;57335;52.288;6.056;2023-07-16T07:46:14;9.82;;;3.47;;
69750;SDS011;57335;52.288;6.056;2023-07-16T07:48:41;7.85;;;2.83;;
69750;SDS011;57335;52.288;6.056;2023-07-16T07:51:07;9.68;;;3.38;;
69750;SDS011;57335;52.288;6.056;2023-07-16T07:53:33;8.43;;;3.03;;
69750;SDS011;57335;52.288;6.056;2023-07-16T07:56:00;8.02;;;3.30;;
69750;SDS011;57335;52.288;6.056;2023-07-16T07:58:26;9.40;;;3.00;;
69750;SDS011;57335;52.288;6.056;2023-07-16T08:00:52;9.85;;;3.38;;
69750;SDS011;57335;52.288;6.056;2023-07-16T08:03:19;9.23;;;3.20;;
69750;SDS011;57335;52.288;6.056;2023-07-16T08:05:48;8.93;;;2.97;;
69750;SDS011;57335;52.288;6.056;2023-07-16T08:08:15;8.07;;;3.33;;
69750;SDS011;57335;52.288;6.056;2023-07-16T08:10:42;7.63;;;3.25;;
69750;SDS011;57335;52.288;6.056;2023-07-16T08:13:08;9.95;;;3.30;;
69750;SDS011;57335;52.288;6.056;2023-07-16T08:15:35;10.63;;;3.80;;
69750;SDS011;57335;52.288;6.056;2023-07-16T08:18:01;10.65;;;3.40;;
69750;SDS011;57335;52.288;6.056;2023-07-16T08:20:28;9.15;;;3.58;;
69750;SDS011;57335;52.288;6.056;2023-07-16T08:22:55;8.93;;;3.20;;
69750;SDS011;57335;52.288;6.056;2023-07-16T08:25:21;9.45;;;3.40;;
69750;SDS011;57335;52.288;6.056;2023-07-16T08:27:48;10.60;;;3.60;;
69750;SDS011;57335;52.288;6.056;2023-07-16T08:30:14;8.73;;;3.55;;
69750;SDS011;57335;52.288;6.056;2023-07-16T08:32:41;8.40;;;3.55;;
69750;SDS011;57335;52.288;6.056;2023-07-16T08:35:07;9.88;;;3.63;;
69750;SDS011;57335;52.288;6.056;2023-07-16T08:37:34;8.05;;;3.30;;
69750;SDS011;57335;52.288;6.056;2023-07-16T08:40:00;8.93;;;3.50;;
69750;SDS011;57335;52.288;6.056;2023-07-16T08:42:27;13.52;;;4.07;;
69750;SDS011;57335;52.288;6.056;2023-07-16T08:44:53;11.25;;;4.13;;
69750;SDS011;57335;52.288;6.056;2023-07-16T08:47:20;10.00;;;3.83;;
69750;SDS011;57335;52.288;6.056;2023-07-16T08:49:54;10.63;;;3.70;;
69750;SDS011;57335;52.288;6.056;2023-07-16T08:52:21;10.77;;;3.58;;
69750;SDS011;57335;52.288;6.056;2023-07-16T08:54:48;10.75;;;3.67;;
69750;SDS011;57335;52.288;6.056;2023-07-16T08:57:14;11.65;;;3.80;;
69750;SDS011;57335;52.288;6.056;2023-07-16T08:59:42;11.30;;;3.40;;
69750;SDS011;57335;52.288;6.056;2023-07-16T09:02:10;10.15;;;3.55;;
69750;SDS011;57335;52.288;6.056;2023-07-16T09:04:38;10.85;;;3.65;;
69750;SDS011;57335;52.288;6.056;2023-07-16T09:07:04;11.70;;;3.63;;
69750;SDS011;57335;52.288;6.056;2023-07-16T09:09:31;9.77;;;3.67;;
69750;SDS011;57335;52.288;6.056;2023-07-16T09:11:57;10.85;;;4.00;;
69750;SDS011;57335;52.288;6.056;2023-07-16T09:14:23;11.25;;;4.00;;
69750;SDS011;57335;52.288;6.056;2023-07-16T09:16:50;10.50;;;3.85;;
69750;SDS011;57335;52.288;6.056;2023-07-16T09:19:17;8.48;;;3.20;;
69750;SDS011;57335;52.288;6.056;2023-07-16T09:21:47;8.50;;;3.20;;
69750;SDS011;57335;52.288;6.056;2023-07-16T09:24:18;11.10;;;3.58;;
69750;SDS011;57335;52.288;6.056;2023-07-16T09:26:47;10.48;;;3.97;;
69750;SDS011;57335;52.288;6.056;2023-07-16T09:29:18;9.32;;;3.50;;
69750;SDS011;57335;52.288;6.056;2023-07-16T09:31:52;11.30;;;3.40;;
69750;SDS011;57335;52.288;6.056;2023-07-16T09:34:18;10.25;;;3.63;;
69750;SDS011;57335;52.288;6.056;2023-07-16T09:36:47;11.60;;;3.65;;
69750;SDS011;57335;52.288;6.056;2023-07-16T09:39:14;10.52;;;3.70;;
69750;SDS011;57335;52.288;6.056;2023-07-16T09:41:43;10.93;;;3.88;;
69750;SDS011;57335;52.288;6.056;2023-07-16T09:44:10;10.52;;;3.72;;
69750;SDS011;57335;52.288;6.056;2023-07-16T09:46:38;10.23;;;3.95;;
69750;SDS011;57335;52.288;6.056;2023-07-16T09:49:05;12.93;;;4.03;;
69750;SDS011;57335;52.288;6.056;2023-07-16T09:51:31;10.68;;;3.75;;
69750;SDS011;57335;52.288;6.056;2023-07-16T09:54:03;10.50;;;3.50;;
69750;SDS011;57335;52.288;6.056;2023-07-16T09:56:32;10.63;;;3.70;;
69750;SDS011;57335;52.288;6.056;2023-07-16T09:58:59;8.70;;;3.45;;
69750;SDS011;57335;52.288;6.056;2023-07-16T10:01:28;9.50;;;3.28;;
69750;SDS011;57335;52.288;6.056;2023-07-16T10:03:56;11.60;;;3.80;;
69750;SDS011;57335;52.288;6.056;2023-07-16T10:06:22;9.80;;;3.50;;
69750;SDS011;57335;52.288;6.056;2023-07-16T10:08:49;12.05;;;3.72;;
69750;SDS011;57335;52.288;6.056;2023-07-16T10:11:16;11.93;;;3.70;;
69750;SDS011;57335;52.288;6.056;2023-07-16T10:13:50;10.25;;;4.10;;
69750;SDS011;57335;52.288;6.056;2023-07-16T10:16:20;9.85;;;3.65;;
69750;SDS011;57335;52.288;6.056;2023-07-16T10:18:50;9.05;;;3.33;;
69750;SDS011;57335;52.288;6.056;2023-07-16T10:21:21;10.32;;;3.42;;
69750;SDS011;57335;52.288;6.056;2023-07-16T10:23:56;10.50;;;3.30;;
69750;SDS011;57335;52.288;6.056;2023-07-16T10:26:26;9.73;;;3.65;;
69750;SDS011;57335;52.288;6.056;2023-07-16T10:28:54;8.82;;;3.60;;
69750;SDS011;57335;52.288;6.056;2023-07-16T10:31:21;10.38;;;3.65;;
69750;SDS011;57335;52.288;6.056;2023-07-16T10:34:03;9.20;;;3.13;;
69750;SDS011;57335;52.288;6.056;2023-07-16T10:36:37;8.38;;;3.28;;
69750;SDS011;57335;52.288;6.056;2023-07-16T10:39:04;9.13;;;3.30;;
69750;SDS011;57335;52.288;6.056;2023-07-16T10:41:31;10.45;;;3.63;;
69750;SDS011;57335;52.288;6.056;2023-07-16T10:43:58;9.88;;;3.30;;
69750;SDS011;57335;52.288;6.056;2023-07-16T10:46:25;9.68;;;3.30;;
69750;SDS011;57335;52.288;6.056;2023-07-16T10:48:51;11.38;;;3.53;;
69750;SDS011;57335;52.288;6.056;2023-07-16T10:51:19;10.82;;;3.38;;
69750;SDS011;57335;52.288;6.056;2023-07-16T10:53:51;10.90;;;3.40;;
69750;SDS011;57335;52.288;6.056;2023-07-16T10:56:19;13.23;;;3.92;;
69750;SDS011;57335;52.288;6.056;2023-07-16T10:58:46;8.55;;;3.15;;
69750;SDS011;57335;52.288;6.056;2023-07-16T11:01:12;9.38;;;3.20;;
69750;SDS011;57335;52.288;6.056;2023-07-16T11:03:39;10.32;;;3.50;;
69750;SDS011;57335;52.288;6.056;2023-07-16T11:06:06;11.40;;;3.50;;
69750;SDS011;57335;52.288;6.056;2023-07-16T11:08:34;11.70;;;4.00;;
69750;SDS011;57335;52.288;6.056;2023-07-16T11:11:01;10.18;;;3.30;;
69750;SDS011;57335;52.288;6.056;2023-07-16T11:13:28;9.32;;;3.83;;
69750;SDS011;57335;52.288;6.056;2023-07-16T11:15:56;8.82;;;3.30;;
69750;SDS011;57335;52.288;6.056;2023-07-16T11:18:23;10.85;;;3.45;;
69750;SDS011;57335;52.288;6.056;2023-07-16T11:20:51;11.27;;;3.47;;
69750;SDS011;57335;52.288;6.056;2023-07-16T11:23:18;9.38;;;3.60;;
69750;SDS011;57335;52.288;6.056;2023-07-16T11:25:47;10.25;;;3.22;;
69750;SDS011;57335;52.288;6.056;2023-07-16T11:28:15;9.57;;;3.42;;
69750;SDS011;57335;52.288;6.056;2023-07-16T11:30:41;10.93;;;3.60;;
69750;SDS011;57335;52.288;6.056;2023-07-16T11:33:11;9.70;;;3.63;;
69750;SDS011;57335;52.288;6.056;2023-07-16T11:35:38;9.88;;;3.28;;
69750;SDS011;57335;52.288;6.056;2023-07-16T11:38:05;10.30;;;3.75;;
69750;SDS011;57335;52.288;6.056;2023-07-16T11:40:33;12.40;;;3.67;;
69750;SDS011;57335;52.288;6.056;2023-07-16T11:43:09;9.30;;;3.20;;
69750;SDS011;57335;52.288;6.056;2023-07-16T11:45:37;10.23;;;3.40;;
69750;SDS011;57335;52.288;6.056;2023-07-16T11:48:04;12.25;;;3.30;;
69750;SDS011;57335;52.288;6.056;2023-07-16T11:50:31;9.52;;;3.08;;
69750;SDS011;57335;52.288;6.056;2023-07-16T11:53:00;10.73;;;3.47;;
69750;SDS011;57335;52.288;6.056;2023-07-16T11:55:27;10.10;;;3.13;;
69750;SDS011;57335;52.288;6.056;2023-07-16T11:57:53;8.88;;;3.17;;
69750;SDS011;57335;52.288;6.056;2023-07-16T12:00:20;11.07;;;3.58;;
69750;SDS011;57335;52.288;6.056;2023-07-16T12:02:46;9.77;;;3.03;;
69750;SDS011;57335;52.288;6.056;2023-07-16T12:05:13;10.00;;;2.53;;
69750;SDS011;57335;52.288;6.056;2023-07-16T12:07:40;7.43;;;3.15;;
69750;SDS011;57335;52.288;6.056;2023-07-16T12:10:06;9.90;;;3.00;;
69750;SDS011;57335;52.288;6.056;2023-07-16T12:12:33;9.73;;;3.20;;
69750;SDS011;57335;52.288;6.056;2023-07-16T12:15:00;8.20;;;2.90;;
69750;SDS011;57335;52.288;6.056;2023-07-16T12:17:26;8.57;;;3.10;;
69750;SDS011;57335;52.288;6.056;2023-07-16T12:19:53;8.75;;;3.45;;
69750;SDS011;57335;52.288;6.056;2023-07-16T12:22:19;8.05;;;2.97;;
69750;SDS011;57335;52.288;6.056;2023-07-16T12:24:47;10.18;;;3.28;;
69750;SDS011;57335;52.288;6.056;2023-07-16T12:27:14;9.55;;;3.10;;
69750;SDS011;57335;52.288;6.056;2023-07-16T12:29:40;8.52;;;2.95;;
69750;SDS011;57335;52.288;6.056;2023-07-16T12:32:07;10.95;;;3.20;;
69750;SDS011;57335;52.288;6.056;2023-07-16T12:34:35;7.53;;;2.85;;
69750;SDS011;57335;52.288;6.056;2023-07-16T12:37:02;7.50;;;2.92;;
69750;SDS011;57335;52.288;6.056;2023-07-16T12:39:28;9.13;;;3.08;;
69750;SDS011;57335;52.288;6.056;2023-07-16T12:41:55;9.38;;;3.10;;
69750;SDS011;57335;52.288;6.056;2023-07-16T12:44:21;9.23;;;3.30;;
69750;SDS011;57335;52.288;6.056;2023-07-16T12:46:48;8.02;;;3.30;;
69750;SDS011;57335;52.288;6.056;2023-07-16T12:49:14;9.52;;;3.30;;
69750;SDS011;57335;52.288;6.056;2023-07-16T12:51:41;8.60;;;3.38;;
69750;SDS011;57335;52.288;6.056;2023-07-16T12:54:08;10.30;;;3.35;;
69750;SDS011;57335;52.288;6.056;2023-07-16T12:56:34;8.35;;;3.40;;
69750;SDS011;57335;52.288;6.056;2023-07-16T12:59:00;9.90;;;3.60;;
69750;SDS011;57335;52.288;6.056;2023-07-16T13:01:27;9.65;;;3.50;;
69750;SDS011;57335;52.288;6.056;2023-07-16T13:03:53;8.82;;;3.30;;
69750;SDS011;57335;52.288;6.056;2023-07-16T13:06:20;9.95;;;3.60;;
69750;SDS011;57335;52.288;6.056;2023-07-16T13:08:46;9.88;;;3.55;;
69750;SDS011;57335;52.288;6.056;2023-07-16T13:11:12;8.82;;;3.40;;
69750;SDS011;57335;52.288;6.056;2023-07-16T13:13:39;10.65;;;3.40;;
69750;SDS011;57335;52.288;6.056;2023-07-16T13:16:05;9.88;;;3.70;;
69750;SDS011;57335;52.288;6.056;2023-07-16T13:18:31;7.28;;;3.20;;
69750;SDS011;57335;52.288;6.056;2023-07-16T13:20:58;8.35;;;2.72;;
69750;SDS011;57335;52.288;6.056;2023-07-16T13:23:24;8.10;;;3.00;;
69750;SDS011;57335;52.288;6.056;2023-07-16T13:25:51;8.75;;;2.70;;
69750;SDS011;57335;52.288;6.056;2023-07-16T13:28:17;8.00;;;3.13;;
69750;SDS011;57335;52.288;6.056;2023-07-16T13:30:44;7.95;;;2.65;;
69750;SDS011;57335;52.288;6.056;2023-07-16T13:33:10;7.40;;;2.40;;
69750;SDS011;57335;52.288;6.056;2023-07-16T13:35:36;9.82;;;3.15;;
69750;SDS011;57335;52.288;6.056;2023-07-16T13:38:03;7.15;;;2.60;;
69750;SDS011;57335;52.288;6.056;2023-07-16T13:40:29;6.70;;;2.28;;
69750;SDS011;57335;52.288;6.056;2023-07-16T13:42:56;6.55;;;2.55;;
69750;SDS011;57335;52.288;6.056;2023-07-16T13:45:22;7.75;;;2.53;;
69750;SDS011;57335;52.288;6.056;2023-07-16T13:47:49;8.60;;;2.67;;
69750;SDS011;57335;52.288;6.056;2023-07-16T13:50:15;6.82;;;2.25;;
69750;SDS011;57335;52.288;6.056;2023-07-16T13:52:42;7.03;;;2.30;;
69750;SDS011;57335;52.288;6.056;2023-07-16T13:55:08;7.70;;;2.35;;
69750;SDS011;57335;52.288;6.056;2023-07-16T13:57:35;6.65;;;2.30;;
69750;SDS011;57335;52.288;6.056;2023-07-16T14:00:02;7.70;;;2.53;;
69750;SDS011;57335;52.288;6.056;2023-07-16T14:02:29;7.75;;;2.60;;
69750;SDS011;57335;52.288;6.056;2023-07-16T14:04:55;8.18;;;2.80;;
69750;SDS011;57335;52.288;6.056;2023-07-16T14:07:22;9.70;;;3.03;;
69750;SDS011;57335;52.288;6.056;2023-07-16T14:09:48;10.55;;;3.08;;
69750;SDS011;57335;52.288;6.056;2023-07-16T14:12:15;8.98;;;2.80;;
69750;SDS011;57335;52.288;6.056;2023-07-16T14:14:41;8.05;;;2.83;;
69750;SDS011;57335;52.288;6.056;2023-07-16T14:17:07;8.20;;;3.20;;
69750;SDS011;57335;52.288;6.056;2023-07-16T14:19:35;7.85;;;3.00;;
69750;SDS011;57335;52.288;6.056;2023-07-16T14:22:02;7.60;;;3.00;;
69750;SDS011;57335;52.288;6.056;2023-07-16T14:24:28;9.90;;;2.85;;
69750;SDS011;57335;52.288;6.056;2023-07-16T14:26:57;8.55;;;2.47;;
69750;SDS011;57335;52.288;6.056;2023-07-16T14:29:24;9.57;;;2.63;;
69750;SDS011;57335;52.288;6.056;2023-07-16T14:31:51;8.43;;;2.72;;
69750;SDS011;57335;52.288;6.056;2023-07-16T14:34:20;8.48;;;2.60;;
69750;SDS011;57335;52.288;6.056;2023-07-16T14:36:47;6.55;;;2.13;;
69750;SDS011;57335;52.288;6.056;2023-07-16T14:39:13;7.18;;;2.10;;
69750;SDS011;57335;52.288;6.056;2023-07-16T14:41:40;7.05;;;2.10;;
69750;SDS011;57335;52.288;6.056;2023-07-16T14:44:06;7.75;;;2.28;;